createdAt,value
2023-05-19T00:07:32.711Z,0.0000
2023-05-19T00:09:33.672Z,0.0000
2023-05-19T00:10:34.787Z,0.0000
2023-05-19T00:13:37.322Z,0.0000
2023-05-19T00:20:40.060Z,0.0000
2023-05-19T00:21:41.099Z,0.0000
2023-05-19T00:23:42.369Z,0.0000
2023-05-19T00:24:42.912Z,0.0000
2023-05-19T00:25:43.599Z,0.0000
2023-05-19T00:26:44.749Z,0.0000
2023-05-19T00:28:45.662Z,0.0000
2023-05-19T00:29:46.719Z,0.0000
2023-05-19T00:34:49.368Z,0.0000
2023-05-19T00:36:50.043Z,0.0000
2023-05-19T00:37:50.088Z,0.0000
2023-05-19T00:38:50.956Z,0.0000
2023-05-19T00:39:51.941Z,0.0000
2023-05-19T00:40:52.523Z,0.0000
2023-05-19T00:41:52.840Z,0.0000
2023-05-19T00:42:53.300Z,0.0000
2023-05-19T00:43:54.149Z,0.0000
2023-05-19T00:45:54.522Z,0.0000
2023-05-19T00:46:54.772Z,0.0000
2023-05-19T00:48:53.054Z,0.0000
2023-05-19T00:49:53.390Z,0.0000
2023-05-19T00:50:54.376Z,0.0000
2023-05-19T00:51:55.089Z,0.0000
2023-05-19T00:52:57.026Z,0.0000
2023-05-19T01:00:00.524Z,0.0000
2023-05-19T01:05:04.142Z,0.0000
2023-05-19T01:06:04.704Z,0.0000
2023-05-19T01:08:04.549Z,0.0000
2023-05-19T01:10:05.566Z,0.0000
2023-05-19T01:11:06.125Z,0.0000
2023-05-19T01:18:09.122Z,0.0000
2023-05-19T01:25:14.664Z,0.0000
2023-05-19T01:27:15.383Z,0.0000
2023-05-19T01:29:16.427Z,0.0000
2023-05-19T01:37:21.055Z,0.0000
2023-05-19T01:40:21.560Z,0.0000
2023-05-19T01:41:22.479Z,0.0000
2023-05-19T01:42:23.270Z,0.0000
2023-05-19T01:43:23.661Z,0.0000
2023-05-19T01:45:26.309Z,0.0000
2023-05-19T01:47:27.944Z,0.0000
2023-05-19T01:58:35.410Z,0.0000
2023-05-19T01:59:36.504Z,0.0000
2023-05-19T02:00:37.569Z,0.0000
2023-05-19T02:01:38.409Z,0.0000
2023-05-19T02:08:42.002Z,0.0000
2023-05-19T02:10:43.378Z,0.0000
2023-05-19T02:11:44.520Z,0.0000
2023-05-19T02:12:44.664Z,0.0000
2023-05-19T02:13:45.684Z,0.0000
2023-05-19T02:14:46.036Z,0.0000
2023-05-19T02:15:49.077Z,0.0000
2023-05-19T02:16:50.410Z,0.0000
2023-05-19T02:17:51.115Z,0.0000
2023-05-19T02:18:51.537Z,0.0000
2023-05-19T02:19:51.531Z,0.0000
2023-05-19T02:20:52.442Z,0.0000
2023-05-19T02:21:52.988Z,0.0000
2023-05-19T02:22:53.936Z,0.0000
2023-05-19T02:23:54.592Z,0.0000
2023-05-19T02:24:54.639Z,0.0000
2023-05-19T02:25:55.484Z,0.0000
2023-05-19T02:26:55.978Z,0.0000
2023-05-19T02:27:57.350Z,0.0000
2023-05-19T02:28:58.107Z,0.0000
2023-05-19T02:29:58.102Z,0.0000
2023-05-19T02:31:00.069Z,0.0000
2023-05-19T02:32:00.906Z,0.0000
2023-05-19T02:39:03.809Z,0.0000
2023-05-19T02:42:06.234Z,0.0000
2023-05-19T02:44:07.122Z,0.0000
2023-05-19T02:53:19.514Z,0.0000
2023-05-19T02:54:19.723Z,0.0000
2023-05-19T02:55:21.066Z,0.0000
2023-05-19T02:56:22.181Z,0.0000
2023-05-19T02:57:24.166Z,0.0000
2023-05-19T02:58:24.300Z,0.0000
2023-05-19T02:59:25.708Z,0.0000
2023-05-19T03:00:24.937Z,0.0000
2023-05-19T03:01:25.667Z,0.0000
2023-05-19T03:02:26.006Z,0.0000
2023-05-19T03:03:26.651Z,0.0000
2023-05-19T03:04:26.682Z,0.0000
2023-05-19T03:05:28.070Z,0.0000
2023-05-19T03:06:29.066Z,0.0000
2023-05-19T03:11:32.120Z,0.0000
2023-05-19T03:12:32.565Z,0.0000
2023-05-19T03:13:33.489Z,3.0698
2023-05-19T03:15:34.080Z,4.4545
2023-05-19T03:16:35.248Z,8.5116
2023-05-19T03:17:35.593Z,3.0000
2023-05-19T03:18:35.699Z,9.0000
2023-05-19T03:19:37.109Z,11.5455
2023-05-19T03:20:40.922Z,11.0444
2023-05-19T03:21:39.976Z,15.2857
2023-05-19T03:25:42.301Z,39.5116
2023-05-19T03:27:43.017Z,50.0455
2023-05-19T03:28:43.569Z,47.8409
2023-05-19T03:30:43.371Z,76.3864
2023-05-19T03:31:43.492Z,87.1628
2023-05-19T03:32:43.768Z,103.4286
2023-05-19T03:33:44.557Z,112.1860
2023-05-19T03:35:45.741Z,148.6136
2023-05-19T03:36:46.068Z,166.9545
2023-05-19T03:37:46.692Z,196.7045
2023-05-19T03:38:47.801Z,230.5455
2023-05-19T03:44:50.264Z,404.7556
2023-05-19T03:45:50.926Z,435.9546
2023-05-19T03:46:52.717Z,475.4546
2023-05-19T03:47:53.412Z,514.0930
2023-05-19T03:48:54.979Z,552.1556
2023-05-19T03:53:55.600Z,758.8333
2023-05-19T03:54:57.020Z,809.4883
2023-05-19T04:04:01.936Z,1346.1395
2023-05-19T04:09:04.212Z,1693.9546
2023-05-19T04:10:04.570Z,1768.9546
2023-05-19T04:12:07.721Z,1929.8000
2023-05-19T04:14:09.666Z,2130.9131
2023-05-19T04:15:09.802Z,2252.0000
2023-05-19T04:16:11.425Z,2378.2888
2023-05-19T04:18:11.872Z,2602.5454
2023-05-19T04:20:13.182Z,2809.2444
2023-05-19T04:21:13.864Z,2949.2327
2023-05-19T04:22:15.057Z,3051.7727
2023-05-19T04:23:15.814Z,3153.3635
2023-05-19T04:24:17.327Z,3254.5557
2023-05-19T04:25:17.490Z,3376.6047
2023-05-19T04:26:17.964Z,3487.2791
2023-05-19T04:27:19.163Z,3590.9302
2023-05-19T04:30:21.929Z,3819.0000
2023-05-19T04:31:22.051Z,3901.3865
2023-05-19T04:32:22.851Z,3974.8181
2023-05-19T04:33:24.270Z,4079.7954
2023-05-19T04:34:25.318Z,4224.2002
2023-05-19T04:38:26.847Z,4467.8862
2023-05-19T04:39:27.489Z,4521.9536
2023-05-19T04:40:27.806Z,4698.9092
2023-05-19T04:41:28.759Z,4802.5332
2023-05-19T04:42:29.883Z,4780.2446
2023-05-19T04:43:30.160Z,4810.5581
2023-05-19T04:44:31.559Z,4932.7046
2023-05-19T04:45:31.738Z,5029.2729
2023-05-19T04:47:34.627Z,5203.0225
2023-05-19T04:53:39.282Z,6044.2046
2023-05-19T04:54:39.511Z,6034.7676
2023-05-19T04:55:39.873Z,5959.1816
2023-05-19T04:56:40.443Z,5848.2324
2023-05-19T05:04:43.595Z,6511.6978
2023-05-19T05:05:45.365Z,7073.8408
2023-05-19T05:07:45.593Z,7466.6592
2023-05-19T05:08:46.688Z,7846.7500
2023-05-19T05:09:47.093Z,7914.0234
2023-05-19T05:10:47.706Z,7870.1626
2023-05-19T05:22:54.908Z,10054.7959
2023-05-19T05:23:56.150Z,9748.5459
2023-05-19T05:24:56.251Z,9276.1865
2023-05-19T05:25:56.650Z,9070.4883
2023-05-19T05:28:59.807Z,9324.4541
2023-05-19T05:30:00.298Z,9140.1191
2023-05-19T05:31:00.518Z,8814.0928
2023-05-19T05:32:00.927Z,8525.0000
2023-05-19T05:33:01.270Z,8254.4541
2023-05-19T05:34:02.333Z,7874.7441
2023-05-19T05:35:03.404Z,7490.9316
2023-05-19T05:36:04.882Z,7389.5776
2023-05-19T05:37:06.278Z,7342.7046
2023-05-19T05:38:07.047Z,7302.3862
2023-05-19T05:39:08.397Z,6936.1860
2023-05-19T05:40:08.807Z,6477.2046
2023-05-19T05:41:09.856Z,6501.0454
2023-05-19T05:42:11.063Z,6335.1777
2023-05-19T05:43:12.534Z,6013.1362
2023-05-19T05:44:12.767Z,6030.2271
2023-05-19T05:45:13.212Z,6170.3408
2023-05-19T05:56:20.348Z,5326.5654
2023-05-19T05:57:20.813Z,5507.1860
2023-05-19T05:58:21.726Z,5648.4883
2023-05-19T05:59:22.713Z,5507.3486
2023-05-19T06:01:22.168Z,5245.7954
2023-05-19T06:02:23.786Z,5090.5713
2023-05-19T06:03:24.719Z,4944.1816
2023-05-19T06:04:26.005Z,4940.6431
2023-05-19T06:05:26.446Z,5121.8140
2023-05-19T06:06:27.486Z,5263.4224
2023-05-19T06:07:28.007Z,5478.3184
2023-05-19T06:11:07.230Z,5078.0513
2023-05-19T06:12:08.276Z,5297.6816
2023-05-19T06:13:08.890Z,5369.7954
2023-05-19T06:14:09.516Z,5411.9546
2023-05-19T06:15:09.782Z,5370.1396
2023-05-19T06:17:12.830Z,5490.5000
2023-05-19T06:18:13.850Z,5400.0698
2023-05-19T06:23:18.183Z,5134.0225
2023-05-19T06:24:18.853Z,5037.6191
2023-05-19T06:25:18.878Z,5072.4771
2023-05-19T06:29:21.377Z,5356.6816
2023-05-19T06:30:21.836Z,5475.6816
2023-05-19T06:31:22.930Z,5446.5229
2023-05-19T06:32:22.919Z,5600.5908
2023-05-19T06:33:25.556Z,5571.7500
2023-05-19T06:34:25.681Z,5141.9756
2023-05-19T06:39:30.351Z,5483.5435
2023-05-19T06:40:31.498Z,5435.9536
2023-05-19T06:42:32.022Z,5104.3335
2023-05-19T06:43:32.396Z,5251.7334
2023-05-19T06:44:33.477Z,5370.2729
2023-05-19T06:45:34.216Z,5349.1860
2023-05-19T06:46:34.346Z,5077.0454
2023-05-19T06:47:35.498Z,4842.5454
2023-05-19T06:48:35.784Z,4769.2749
2023-05-19T06:49:37.761Z,4833.4546
2023-05-19T06:54:39.136Z,5460.3262
2023-05-19T06:55:54.356Z,6122.6304
2023-05-19T06:56:40.725Z,6551.5137
2023-05-19T06:58:43.640Z,6072.1001
2023-05-19T06:59:43.934Z,6103.8140
2023-05-19T07:00:44.883Z,5930.3657
2023-05-19T07:09:47.200Z,9349.2275
2023-05-19T07:12:48.598Z,12147.1592
2023-05-19T07:15:49.701Z,12593.4316
2023-05-19T07:16:50.253Z,11837.4775
2023-05-19T07:17:52.120Z,10832.6445
2023-05-19T07:18:52.507Z,10763.8867
2023-05-19T07:19:53.810Z,11520.6279
2023-05-19T07:20:54.102Z,11515.2090
2023-05-19T07:21:55.620Z,11928.4092
2023-05-19T07:22:55.903Z,13344.8184
2023-05-19T07:23:57.113Z,14571.5850
2023-05-19T07:26:58.849Z,15831.4092
2023-05-19T07:27:59.266Z,15762.3867
2023-05-19T07:29:12.203Z,16939.7773
2023-05-19T07:30:02.156Z,16340.5947
2023-05-19T07:31:03.278Z,16460.2949
2023-05-19T07:32:04.074Z,18292.5332
2023-05-19T07:33:05.340Z,18046.1328
2023-05-19T07:34:06.244Z,15905.7998
2023-05-19T07:35:06.575Z,15101.9775
2023-05-19T07:36:07.984Z,13657.7773
2023-05-19T07:39:11.295Z,13923.1777
2023-05-19T07:40:12.006Z,14636.9541
2023-05-19T07:41:13.022Z,16504.0000
2023-05-19T07:42:13.514Z,19908.6426
2023-05-19T07:43:14.702Z,19954.2676
2023-05-19T07:44:15.581Z,19764.6816
2023-05-19T07:45:16.710Z,21932.2734
2023-05-19T07:49:18.357Z,26907.7207
2023-05-19T07:50:19.310Z,27327.1582
2023-05-19T07:51:19.558Z,25163.2500
2023-05-19T07:54:21.657Z,28736.7500
2023-05-19T07:55:22.106Z,28844.2051
2023-05-19T07:56:22.823Z,28700.6445
2023-05-19T07:57:23.207Z,30216.2500
2023-05-19T07:58:24.073Z,29998.3770
2023-05-19T07:59:25.427Z,29300.4219
2023-05-19T08:00:26.070Z,27326.8047
2023-05-19T08:01:27.134Z,25193.4004
2023-05-19T08:02:27.670Z,22841.0684
2023-05-19T08:04:29.651Z,25645.2559
2023-05-19T08:05:30.303Z,24656.4316
2023-05-19T08:06:30.867Z,20921.3418
2023-05-19T08:07:31.354Z,18277.5684
2023-05-19T08:12:33.891Z,13624.0000
2023-05-19T08:13:34.669Z,14360.1367
2023-05-19T08:14:34.962Z,14774.2041
2023-05-19T08:15:35.478Z,15540.1816
2023-05-19T08:16:36.021Z,17761.6445
2023-05-19T08:17:36.928Z,20372.3691
2023-05-19T08:18:37.766Z,19720.2441
2023-05-19T08:21:38.737Z,17875.9785
2023-05-19T08:22:38.971Z,19725.4453
2023-05-19T08:23:39.902Z,20370.4785
2023-05-19T08:24:40.705Z,20680.2559
2023-05-19T08:25:42.358Z,19513.6445
2023-05-19T08:26:43.232Z,17944.6445
2023-05-19T08:27:44.022Z,17131.7109
2023-05-19T08:28:44.969Z,17317.6602
2023-05-19T08:29:45.977Z,17285.2988
2023-05-19T08:33:47.502Z,20796.0430
2023-05-19T08:34:47.883Z,20262.1094
2023-05-19T08:35:47.922Z,19657.1094
2023-05-19T08:36:49.060Z,18946.4473
2023-05-19T08:37:49.155Z,18352.0879
2023-05-19T08:38:50.117Z,18757.8086
2023-05-19T08:39:51.327Z,19483.7871
2023-05-19T08:40:51.735Z,20584.5645
2023-05-19T08:52:19.439Z,33491.1484
2023-05-19T08:54:19.789Z,33340.9766
2023-05-19T08:55:20.777Z,30092.8516
2023-05-19T08:56:21.872Z,30418.2773
2023-05-19T08:57:22.927Z,32227.1484
2023-05-19T08:58:23.765Z,33949.4453
2023-05-19T08:59:24.600Z,33084.8047
2023-05-19T09:00:25.689Z,32826.1055
2023-05-19T09:01:25.938Z,34300.6016
2023-05-19T09:02:27.057Z,34041.6367
2023-05-19T09:03:28.691Z,33196.1211
2023-05-19T09:04:29.994Z,32409.8438
2023-05-19T09:05:29.465Z,30422.1562
2023-05-19T09:06:30.187Z,30903.3906
2023-05-19T09:07:31.459Z,31262.7656
2023-05-19T09:08:32.582Z,29758.4043
2023-05-19T09:09:32.753Z,26573.6309
2023-05-19T09:10:33.476Z,25109.9551
2023-05-19T09:11:33.616Z,25952.6309
2023-05-19T09:12:34.824Z,29204.2344
2023-05-19T09:13:36.007Z,30495.3184
2023-05-19T09:14:37.208Z,27918.1914
2023-05-19T09:32:51.180Z,22074.2383
2023-05-19T09:33:51.426Z,21812.0469
2023-05-19T09:34:52.551Z,22025.9141
2023-05-19T09:35:52.684Z,22659.5000
2023-05-19T09:36:53.861Z,23739.1484
2023-05-19T09:37:54.132Z,25657.5879
2023-05-19T09:38:55.160Z,29407.2773
2023-05-19T09:39:56.112Z,32126.6387
2023-05-19T09:40:57.048Z,32112.4043
2023-05-19T09:41:58.065Z,32768.7031
2023-05-19T09:42:59.133Z,34298.0000
2023-05-19T09:44:00.189Z,36766.7031
2023-05-19T09:45:01.270Z,36624.0430
2023-05-19T09:46:02.288Z,32746.1055
2023-05-19T09:47:03.246Z,30295.2559
2023-05-19T09:48:04.171Z,32203.2773
2023-05-19T09:49:04.186Z,33983.3242
2023-05-19T09:50:05.089Z,32047.4043
2023-05-19T09:51:06.206Z,32349.3398
2023-05-19T09:52:07.214Z,32401.8516
2023-05-19T09:53:08.191Z,32023.1914
2023-05-19T09:54:08.298Z,33299.8047
2023-05-19T09:55:09.342Z,34604.5312
2023-05-19T09:56:09.365Z,32194.8691
2023-05-19T09:57:10.384Z,28810.4902
2023-05-19T10:20:28.893Z,32879.9375
2023-05-19T10:21:30.063Z,30114.0215
2023-05-19T10:22:31.270Z,32131.6387
2023-05-19T10:23:32.049Z,37422.6289
2023-05-19T10:24:33.162Z,39801.7227
2023-05-19T10:25:34.425Z,42021.4258
2023-05-19T10:26:34.331Z,39680.2383
2023-05-19T10:27:35.271Z,39257.4453
2023-05-19T10:28:36.190Z,37992.4023
2023-05-19T10:29:37.098Z,37010.2539
2023-05-19T10:30:38.150Z,36287.1914
2023-05-19T10:31:39.319Z,36094.6602
2023-05-19T10:32:39.397Z,34500.8711
2023-05-19T10:33:40.432Z,33699.1055
2023-05-19T10:34:41.277Z,32776.2539
2023-05-19T10:35:42.199Z,32566.7656
2023-05-19T10:36:42.266Z,32139.3340
2023-05-19T10:37:43.449Z,31169.2773
2023-05-19T10:38:44.527Z,29844.8086
2023-05-19T10:39:45.094Z,27926.3906
2023-05-19T10:40:46.093Z,27953.9785
2023-05-19T10:41:47.063Z,27691.2988
2023-05-19T10:42:46.928Z,26510.0645
2023-05-19T10:43:48.182Z,26086.0859
2023-05-19T10:44:48.733Z,28025.3574
2023-05-19T10:45:48.944Z,30470.1309
2023-05-19T10:46:49.474Z,32512.0645
2023-05-19T11:03:04.226Z,43284.3242
2023-05-19T11:04:05.989Z,42621.7891
2023-05-19T11:05:06.457Z,38710.9336
2023-05-19T11:06:07.481Z,33436.6797
2023-05-19T11:07:08.644Z,27500.1699
2023-05-19T11:08:09.668Z,25101.8945
2023-05-19T11:09:10.695Z,24842.4473
2023-05-19T11:10:10.895Z,25563.8691
2023-05-19T11:11:11.829Z,26725.5742
2023-05-19T11:12:12.754Z,29454.0215
2023-05-19T11:13:14.909Z,33041.2109
2023-05-19T11:14:14.737Z,35934.8711
2023-05-19T11:15:15.718Z,39888.4883
2023-05-19T11:16:16.889Z,40430.5742
2023-05-19T11:17:18.078Z,37873.7031
2023-05-19T11:18:18.785Z,38929.7773
2023-05-19T11:19:20.002Z,43026.9805
2023-05-19T11:20:20.109Z,45436.3906
2023-05-19T11:21:21.227Z,45822.0195
2023-05-19T11:22:22.152Z,43308.4023
2023-05-19T11:23:23.442Z,38710.3398
2023-05-19T11:24:23.448Z,34138.6836
2023-05-19T11:25:24.435Z,29338.6387
2023-05-19T11:26:25.271Z,26673.6602
2023-05-19T11:27:26.153Z,25359.7441
2023-05-19T11:28:26.992Z,24109.2773
2023-05-19T11:29:27.858Z,23515.0859
2023-05-19T11:30:28.849Z,24975.8086
2023-05-19T11:31:29.777Z,26959.6387
2023-05-19T11:32:30.955Z,28956.8301
2023-05-19T11:33:30.813Z,30162.2383
2023-05-19T11:34:31.673Z,32248.8945
2023-05-19T11:35:35.444Z,33434.3203
2023-05-19T11:36:32.809Z,36976.8125
2023-05-19T11:37:33.576Z,37944.5312
2023-05-19T11:38:34.388Z,37602.5977
2023-05-19T11:39:35.401Z,40607.3398
2023-05-19T11:40:36.222Z,44179.2969
2023-05-19T11:41:37.267Z,127904.9766
2023-05-19T11:42:38.268Z,153470.7812
2023-05-19T11:43:39.275Z,157226.8750
2023-05-19T11:44:40.482Z,155929.8750
2023-05-19T11:45:41.188Z,155666.2500
2023-05-19T11:46:42.352Z,122964.4453
2023-05-19T11:48:00.895Z,151030.6406
2023-05-19T11:48:44.021Z,151684.9219
2023-05-19T11:49:44.862Z,151733.2188
2023-05-19T11:50:45.896Z,153382.7656
2023-05-19T11:51:47.015Z,155800.9219
2023-05-19T11:52:48.180Z,152922.3438
2023-05-19T11:53:48.381Z,150058.7656
2023-05-19T11:54:49.442Z,150823.5938
2023-05-19T11:55:50.932Z,151061.5312
2023-05-19T11:56:50.775Z,152466.8750
2023-05-19T11:58:02.903Z,153065.0469
2023-05-19T11:58:52.374Z,155404.1875
2023-05-19T11:59:53.392Z,155784.8906
2023-05-19T12:00:54.448Z,156181.4062
2023-05-19T12:01:54.612Z,155753.9844
2023-05-19T12:02:54.707Z,156111.5000
2023-05-19T12:03:54.796Z,155852.7031
2023-05-19T12:04:55.831Z,155214.5312
2023-05-19T12:05:56.618Z,153511.0469
2023-05-19T12:06:56.459Z,151656.5000
2023-05-19T12:07:57.674Z,150908.1094
2023-05-19T12:08:58.609Z,147798.8281
2023-05-19T12:09:59.670Z,85118.1719
2023-05-19T12:11:00.531Z,57608.8086
2023-05-19T12:12:01.493Z,56790.8516
2023-05-19T12:13:02.441Z,55087.8516
2023-05-19T12:14:03.411Z,53155.5547
2023-05-19T12:15:04.334Z,52222.2969
2023-05-19T12:16:05.402Z,50251.0625
2023-05-19T12:17:06.533Z,49447.8086
2023-05-19T12:18:07.748Z,49669.0859
2023-05-19T12:19:08.678Z,49489.5547
2023-05-19T12:20:09.916Z,53362.9805
2023-05-19T12:21:09.877Z,96346.0469
2023-05-19T12:22:10.058Z,151603.5938
2023-05-19T12:23:10.082Z,116201.8906
2023-05-19T12:24:10.878Z,113441.8750
2023-05-19T12:25:11.778Z,151461.2812
2023-05-19T12:26:11.881Z,152331.0469
2023-05-19T12:27:12.987Z,152377.4219
2023-05-19T12:28:14.808Z,152326.6406
2023-05-19T12:38:22.091Z,153611.3125
2023-05-19T12:39:22.985Z,66786.3828
2023-05-19T12:40:24.056Z,97180.7266
2023-05-19T12:41:25.228Z,39552.2812
2023-05-19T12:42:26.152Z,36491.4688
2023-05-19T12:43:27.320Z,35258.8281
2023-05-19T12:44:28.301Z,36330.2344
2023-05-19T12:45:29.174Z,38748.1055
2023-05-19T12:46:30.406Z,42053.1289
2023-05-19T12:47:31.353Z,41314.0625
2023-05-19T12:48:31.436Z,36435.1758
2023-05-19T12:49:32.518Z,32629.0430
2023-05-19T12:50:32.966Z,31464.0215
2023-05-19T12:51:33.494Z,29397.5430
2023-05-19T12:52:34.149Z,28126.8086
2023-05-19T12:53:35.080Z,27678.1055
2023-05-19T12:54:36.296Z,26943.8730
2023-05-19T12:57:37.457Z,27972.1523
2023-05-19T12:58:37.496Z,29806.0000
2023-05-19T12:59:38.992Z,31238.3809
2023-05-19T13:00:39.150Z,33574.2812
2023-05-19T13:01:40.581Z,37145.4023
2023-05-19T13:02:41.543Z,39668.4883
2023-05-19T13:03:42.060Z,40679.5664
2023-05-19T13:04:43.173Z,42439.7812
2023-05-19T13:05:44.218Z,46212.0859
2023-05-19T13:06:45.168Z,50766.5742
2023-05-19T13:07:45.979Z,53868.7227
2023-05-19T13:08:46.823Z,54368.3828
2023-05-19T13:09:47.055Z,50890.5664
2023-05-19T13:10:47.935Z,44341.4023
2023-05-19T13:11:48.835Z,34291.5977
2023-05-19T13:12:49.849Z,27594.6172
2023-05-19T13:13:49.962Z,22008.8906
2023-05-19T13:14:51.660Z,17916.8945
2023-05-19T13:15:51.191Z,15065.4668
2023-05-19T13:16:52.275Z,13763.3613
2023-05-19T13:17:53.273Z,12964.9570
2023-05-19T13:18:53.670Z,12317.4346
2023-05-19T13:19:54.382Z,11931.7861
2023-05-19T13:20:55.314Z,12244.2344
2023-05-19T13:21:56.467Z,12957.8086
2023-05-19T13:22:57.418Z,13860.8506
2023-05-19T13:23:58.486Z,15368.1064
2023-05-19T13:24:59.442Z,17760.2344
2023-05-19T13:26:00.053Z,20775.8477
2023-05-19T13:27:00.263Z,23125.8906
2023-05-19T13:28:01.560Z,24822.3398
2023-05-19T13:29:02.502Z,26969.2344
2023-05-19T13:30:03.418Z,28252.0859
2023-05-19T13:31:04.425Z,28529.0430
2023-05-19T13:32:04.397Z,27795.0879
2023-05-19T13:33:05.652Z,26098.3613
2023-05-19T13:34:06.204Z,24192.7168
2023-05-19T13:35:07.004Z,22156.0000
2023-05-19T13:36:07.378Z,19654.1953
2023-05-19T13:48:16.355Z,23799.8086
2023-05-19T13:49:17.360Z,25594.1914
2023-05-19T13:50:18.344Z,27528.7871
2023-05-19T13:51:19.302Z,29254.3398
2023-05-19T13:52:20.380Z,29975.4043
2023-05-19T13:53:21.450Z,29631.7871
2023-05-19T13:54:22.677Z,28229.4902
2023-05-19T13:55:23.729Z,26136.0430
2023-05-19T13:56:24.555Z,23376.5957
2023-05-19T13:57:25.505Z,19957.1484
2023-05-19T13:58:26.438Z,17204.2773
2023-05-19T13:59:27.448Z,15573.0430
2023-05-19T14:00:27.865Z,14330.2002
2023-05-19T14:01:28.022Z,13662.8477
2023-05-19T14:13:43.685Z,8439.2285
2023-05-19T14:14:43.699Z,8070.6089
2023-05-19T14:15:43.794Z,8122.2002
2023-05-19T14:16:45.300Z,8715.3613
2023-05-19T14:17:46.390Z,9647.7021
2023-05-19T14:18:46.475Z,10835.8262
2023-05-19T14:19:47.658Z,12181.4043
2023-05-19T14:20:48.676Z,13101.8301
2023-05-19T14:21:49.687Z,13583.4678
2023-05-19T14:22:50.675Z,14311.0000
2023-05-19T14:23:51.919Z,15393.0635
2023-05-19T14:24:52.680Z,16112.8936
2023-05-19T14:25:53.777Z,15983.0000
2023-05-19T14:26:53.899Z,15277.4092
2023-05-19T14:27:55.044Z,14444.3193
2023-05-19T14:28:56.247Z,13489.5742
2023-05-19T14:29:57.138Z,12754.3613
2023-05-19T14:30:57.272Z,11857.7393
2023-05-19T14:31:58.555Z,11494.2764
2023-05-19T14:32:59.589Z,11480.9365
2023-05-19T14:34:00.786Z,11287.1494
2023-05-19T14:35:01.727Z,11281.4678
2023-05-19T14:36:02.783Z,11465.6172
2023-05-19T14:37:03.840Z,11586.9150
2023-05-19T14:38:04.998Z,11696.7451
2023-05-19T14:39:05.771Z,11962.2549
2023-05-19T14:40:08.813Z,12250.7021
2023-05-19T14:45:10.230Z,13174.0654
2023-05-19T15:16:34.241Z,14679.0713
2023-05-19T15:17:35.498Z,12916.8506
2023-05-19T15:18:36.662Z,11075.9785
2023-05-19T15:19:36.894Z,9466.1523
2023-05-19T15:20:40.278Z,8051.5776
2023-05-19T15:21:40.550Z,6875.1304
2023-05-19T15:23:41.261Z,5575.4683
2023-05-19T15:28:03.122Z,5604.5332
2023-05-19T15:29:04.370Z,5779.1113
2023-05-19T15:30:05.139Z,5919.3184
2023-05-19T15:32:06.197Z,5914.9092
2023-05-19T15:34:07.636Z,6010.8911
2023-05-19T15:35:07.938Z,6127.3638
2023-05-19T15:36:08.221Z,6454.7500
2023-05-19T15:37:09.674Z,6933.5684
2023-05-19T15:38:09.366Z,7375.4653
2023-05-19T15:39:10.697Z,7888.8477
2023-05-19T15:40:11.974Z,8190.5112
2023-05-19T15:46:15.456Z,8592.6592
2023-05-19T15:47:15.968Z,8315.7041
2023-05-19T15:48:17.960Z,8154.3999
2023-05-19T15:49:18.248Z,8130.2891
2023-05-19T15:52:21.286Z,8840.7109
2023-05-19T15:53:22.558Z,9323.6670
2023-05-19T15:54:23.332Z,10052.5117
2023-05-19T15:55:24.150Z,10891.8604
2023-05-19T15:56:24.263Z,11591.4092
2023-05-19T15:57:25.356Z,12016.6670
2023-05-19T15:58:26.185Z,12202.9775
2023-05-19T15:59:27.389Z,12509.7334
2023-05-19T16:01:28.122Z,13034.6367
2023-05-19T16:03:27.714Z,13866.8633
2023-05-19T16:04:28.788Z,14014.5225
2023-05-19T16:05:29.093Z,13903.2227
2023-05-19T16:06:30.079Z,13919.1592
2023-05-19T16:07:30.475Z,13633.7725
2023-05-19T16:08:31.009Z,13473.7998
2023-05-19T16:09:32.227Z,13763.7725
2023-05-19T16:10:32.898Z,14430.2725
2023-05-19T16:12:33.824Z,15878.0928
2023-05-19T16:13:35.112Z,16499.7773
2023-05-19T16:15:35.602Z,17346.3418
2023-05-19T16:16:37.052Z,17417.7051
2023-05-19T16:17:36.848Z,17852.6133
2023-05-19T16:18:38.378Z,18578.7383
2023-05-19T16:19:38.385Z,19244.4141
2023-05-19T16:21:39.128Z,20641.3340
2023-05-19T16:32:44.369Z,14091.6670
2023-05-19T16:33:44.597Z,13246.1113
2023-05-19T16:34:45.581Z,12700.2275
2023-05-19T16:36:46.830Z,11688.2041
2023-05-19T16:38:47.891Z,11051.8262
2023-05-19T16:39:48.370Z,10783.4775
2023-05-19T16:45:52.597Z,9677.8867
2023-05-19T16:46:53.309Z,9229.7676
2023-05-19T16:47:54.677Z,8795.0000
2023-05-19T16:48:55.825Z,8328.2441
2023-05-19T16:49:56.017Z,8162.8140
2023-05-19T16:51:57.154Z,7930.2607
2023-05-19T16:52:57.500Z,7474.5557
2023-05-19T16:53:57.664Z,7022.8887
2023-05-19T16:56:00.451Z,6222.5776
2023-05-19T16:57:01.493Z,6128.1816
2023-05-19T16:59:02.118Z,5751.8911
2023-05-19T17:00:03.302Z,5554.1777
2023-05-19T17:01:03.774Z,5571.2500
2023-05-19T17:02:05.117Z,5530.3779
2023-05-19T17:03:05.368Z,5262.6362
2023-05-19T17:04:05.577Z,4894.1362
2023-05-19T17:05:07.186Z,4557.5776
2023-05-19T17:06:07.431Z,4414.6592
2023-05-19T17:08:08.374Z,4419.5229
2023-05-19T17:09:09.267Z,4369.7334
2023-05-19T17:10:10.599Z,4308.7778
2023-05-19T17:11:11.458Z,4280.9111
2023-05-19T17:12:11.808Z,4244.0669
2023-05-19T17:13:12.995Z,4200.2002
2023-05-19T17:14:14.205Z,4184.0220
2023-05-19T17:15:15.035Z,4112.8638
2023-05-19T17:16:15.913Z,3998.4443
2023-05-19T17:17:16.045Z,3895.2222
2023-05-19T17:18:16.880Z,3759.3333
2023-05-19T17:19:17.836Z,3615.0908
2023-05-19T17:20:18.382Z,3511.3408
2023-05-19T17:21:19.589Z,3358.8865
2023-05-19T17:22:20.178Z,3171.0222
2023-05-19T17:23:20.867Z,2944.8408
2023-05-19T17:24:21.775Z,2837.2666
2023-05-19T17:25:22.146Z,2750.1365
2023-05-19T17:26:23.153Z,2658.3635
2023-05-19T17:27:24.039Z,2532.2888
2023-05-19T17:32:26.185Z,2115.8223
2023-05-19T17:34:27.470Z,1972.9556
2023-05-19T17:35:28.657Z,1889.1111
2023-05-19T17:36:29.042Z,1838.2500
2023-05-19T17:37:30.524Z,1830.5909
2023-05-19T17:40:32.008Z,1733.8000
2023-05-19T17:42:32.547Z,1732.4667
2023-05-19T17:43:32.809Z,1725.5000
2023-05-19T17:45:36.439Z,1662.9565
2023-05-19T17:54:41.864Z,1483.6818
2023-05-19T17:55:42.398Z,1465.6511
2023-05-19T17:56:43.939Z,1432.3112
2023-05-19T17:57:45.662Z,1394.1957
2023-05-19T17:58:45.975Z,1407.5454
2023-05-19T17:59:46.099Z,1412.7273
2023-05-19T18:00:47.752Z,1366.5555
2023-05-19T18:01:47.913Z,1334.0909
2023-05-19T18:02:48.404Z,1305.5111
2023-05-19T18:03:50.013Z,1309.2500
2023-05-19T18:08:52.853Z,1256.1086
2023-05-19T18:09:53.215Z,1253.6744
2023-05-19T18:11:56.193Z,1259.8223
2023-05-19T18:12:57.428Z,1211.1555
2023-05-19T18:14:59.101Z,1085.8043
2023-05-19T18:16:00.268Z,1071.1555
2023-05-19T18:17:00.519Z,1063.8409
2023-05-19T18:18:01.099Z,1060.7273
2023-05-19T18:19:01.952Z,1061.7500
2023-05-19T18:30:09.731Z,652.5333
2023-05-19T18:31:10.669Z,623.6364
2023-05-19T18:32:11.097Z,585.7273
2023-05-19T18:33:12.109Z,555.6445
2023-05-19T18:34:11.496Z,536.9302
2023-05-19T18:35:12.644Z,518.9333
2023-05-19T18:36:13.963Z,486.7778
2023-05-19T18:37:14.920Z,464.9318
2023-05-19T18:38:15.103Z,452.7046
2023-05-19T18:39:16.115Z,441.5227
2023-05-19T18:40:16.550Z,399.1905
2023-05-19T18:41:16.820Z,407.1555
2023-05-19T18:43:20.345Z,363.7609
2023-05-19T18:44:21.438Z,348.2000
2023-05-19T18:53:28.614Z,190.0222
2023-05-19T18:54:29.595Z,169.9091
2023-05-19T18:56:30.283Z,153.0667
2023-05-19T18:57:30.793Z,134.6136